Buoy 47557

sailwx.info

Track history (hours):
 
Tides and Currents Weather Stations Pressure Air Temp Water Temp Dewpoint Dewpoint Depression Visibility Wind Speed Wind Dir Waves Ship Positions

Drifting buoy 47557

Last reported at 2017-Nov-16 20:00 UTC. Time now 2017-Dec-15 10:23 UTC.
Position N 54°38' W 008°37'.
Warning: this ship's position is 28 days out of date.

Barometer 1019.4 mb
Water temperature 5.9 ° C

Date/timePositionNaut miles runAvg speedWind from/ knotsBaromVisibWave heightAir tempDewpointWater temp
2017-Nov-16 20:00N 54°38' W 008°37'0 0.0 1019.4 5.9
2017-Nov-16 19:00N 54°38' W 008°37'0 0.0 1018.9 5.7
2017-Nov-16 18:00N 54°38' W 008°37'0 0.0 1018.4 6.4
2017-Nov-16 17:00N 54°38' W 008°37'0 0.0 1018.1 7.0
2017-Nov-16 16:00N 54°38' W 008°37'0 0.0 1017.6 7.8
2017-Nov-16 15:00N 54°38' W 008°37'0 0.0 1017.0 8.9
2017-Nov-16 14:00N 54°38' W 008°37'0 0.0 1016.7 8.9
2017-Nov-16 13:00N 54°38' W 008°37'0 0.0 1016.1 10.8
2017-Nov-16 12:00N 54°38' W 008°37'0 0.0 1015.4 11.2
2017-Nov-16 11:00N 54°38' W 008°37'0 0.0 1014.7 12.1
2017-Nov-16 10:00N 54°38' W 008°37'0 0.0 1013.8 8.7
2017-Nov-16 09:00N 54°38' W 008°37'0 0.0 1013.0 6.1
2017-Nov-16 08:00N 54°38' W 008°37'0 0.0 1011.8 5.9
2017-Nov-16 07:00N 54°38' W 008°37'0 0.0 1010.4 5.9
2017-Nov-16 06:00N 54°38' W 008°37'0 0.0 1009.3 6.6
2017-Nov-16 05:00N 54°38' W 008°37'0 0.0 1008.2 6.6
2017-Nov-16 04:00N 54°38' W 008°37'0 0.0 1006.9 7.7
2017-Nov-16 03:00N 54°38' W 008°37'0 0.0 1006.0 8.4
2017-Nov-16 02:00N 54°38' W 008°37'0 0.0 1005.4 9.1
2017-Nov-16 01:00N 54°38' W 008°37'0 0.0 1004.5 10.8
2017-Nov-16 00:00N 54°38' W 008°37'0 0.0 1005.1 10.8
2017-Nov-15 23:00N 54°38' W 008°37'0 0.0 1005.6 10.6
2017-Nov-15 22:00N 54°38' W 008°37'0 0.0 1006.4 10.6
2017-Nov-15 21:00N 54°38' W 008°37'0 0.0 1007.0 10.5
2017-Nov-15 20:00N 54°38' W 008°37'0 0.0 1007.6 10.4
2017-Nov-15 19:00N 54°38' W 008°37'0 0.0 1008.2 10.2
2017-Nov-15 18:00N 54°38' W 008°37'0 0.0 1008.7 9.9
2017-Nov-15 17:00N 54°38' W 008°37'0 0.0 1009.0 9.5
2017-Nov-15 16:00N 54°38' W 008°37'0 0.0 1009.6 9.3
2017-Nov-15 15:00N 54°38' W 008°37'0 0.0 1010.3 9.1
2017-Nov-15 14:00N 54°38' W 008°37'0 0.0 1011.0 9.0
2017-Nov-15 13:00N 54°38' W 008°37'0 0.0 1011.7 8.9
2017-Nov-15 12:00N 54°38' W 008°37'0 0.0 1012.7 8.4
2017-Nov-15 11:00N 54°38' W 008°37'0 0.0 1013.7 8.2
2017-Nov-15 10:00N 54°38' W 008°37'0 0.0 1013.7 8.2
2017-Nov-15 09:00N 54°38' W 008°37'0 0.0 1014.0 7.2
2017-Nov-15 08:00N 54°38' W 008°37'0 0.0 1013.8 7.1
2017-Nov-15 07:00N 54°38' W 008°37'0 0.0 1013.9 7.0
2017-Nov-15 06:00N 54°38' W 008°37'0 0.0 1014.3 7.4
2017-Nov-15 05:00N 54°38' W 008°37'0 0.0 1014.5 7.9
2017-Nov-15 04:00N 54°38' W 008°37'0 0.0 1014.6 8.0
2017-Nov-15 03:00N 54°38' W 008°37'0 0.0 1014.9 8.2
2017-Nov-15 02:00N 54°38' W 008°37'0 0.0 1014.8 7.7
2017-Nov-15 01:00N 54°38' W 008°37'0 0.0 1014.7 7.0
2017-Nov-15 00:00N 54°38' W 008°37'0 0.0 1014.6 7.2
2017-Nov-14 23:00N 54°38' W 008°37'0 0.0 1014.5 7.2
2017-Nov-14 21:00N 54°38' W 008°37'0 0.0 1013.9 6.9
2017-Nov-14 20:00N 54°38' W 008°37'0 0.0 1013.7 7.3
2017-Nov-14 18:00N 54°38' W 008°37'0 0.0 1012.9 8.1
2017-Nov-14 17:00N 54°38' W 008°37'0 0.0 1012.5 8.8
2017-Nov-14 16:00N 54°38' W 008°37'0 0.0 1012.0 9.8
2017-Nov-14 15:00N 54°38' W 008°37'0 0.0 1011.7 10.5
2017-Nov-14 14:00N 54°38' W 008°37'0 0.0 1011.8 10.1
2017-Nov-14 13:00N 54°38' W 008°37'0 0.0 1011.8 10.7
2017-Nov-14 12:00N 54°38' W 008°37'0 0.0 1011.7 10.7
2017-Nov-14 11:00N 54°38' W 008°37'0 0.0 1011.9 10.0
2017-Nov-14 10:00N 54°38' W 008°37'0 0.0 1011.6 9.5
2017-Nov-14 09:00N 54°38' W 008°37'0 0.0 1011.4 8.9
2017-Nov-14 08:00N 54°38' W 008°37'0 0.0 1011.2 9.1
2017-Nov-14 07:00N 54°38' W 008°37'0 0.0 1010.9 9.2
2017-Nov-14 06:00N 54°38' W 008°37'0 0.0 1010.8 9.4
2017-Nov-14 05:00N 54°38' W 008°37'0 0.0 1010.5 9.5
2017-Nov-14 04:00N 54°38' W 008°37'0 0.0 1010.3 9.6
2017-Nov-14 03:00N 54°38' W 008°37'0 0.0 1010.5 10.5
2017-Nov-14 02:00N 54°38' W 008°37'0 0.0 1010.1 10.9
2017-Nov-14 01:00N 54°38' W 008°37'0 0.0 1010.0 10.9
2017-Nov-14 00:00N 54°38' W 008°37'0 0.0 1010.0 11.1
2017-Nov-13 23:00N 54°38' W 008°37'0 0.0 1010.0 11.2
2017-Nov-13 22:00N 54°38' W 008°37'0 0.0 1010.2 11.1
2017-Nov-13 21:00N 54°38' W 008°37'0 0.0 1010.3 10.9
2017-Nov-13 20:00N 54°38' W 008°37'0 0.0 1010.6 10.6
2017-Nov-13 19:00N 54°38' W 008°37'0 0.0 1011.1 10.3
2017-Nov-13 18:00N 54°38' W 008°37'0 0.0 1011.3 10.1
2017-Nov-13 17:00N 54°38' W 008°37'0 0.0 1011.6 9.7
2017-Nov-13 16:00N 54°38' W 008°37'0 0.0 1012.0 9.4
2017-Nov-13 14:00N 54°38' W 008°37'0 0.0 1013.5 8.5
2017-Nov-13 13:00N 54°38' W 008°37'0 0.0 1014.4 7.0
2017-Nov-13 12:00N 54°38' W 008°37'0 0.0 1015.4 6.9
2017-Nov-13 11:00N 54°38' W 008°37'0 0.0 1016.2 6.5
2017-Nov-13 10:00N 54°38' W 008°37'0 0.0 1016.9 6.3
2017-Nov-13 09:00N 54°38' W 008°37'0 0.0 1017.2 6.7
2017-Nov-13 08:00N 54°38' W 008°37'0 0.0 1017.2 6.6
2017-Nov-13 07:00N 54°38' W 008°37'0 0.0 1017.6 6.5
2017-Nov-13 06:00N 54°38' W 008°37'0 0.0 1018.1 6.5
2017-Nov-13 05:00N 54°38' W 008°37'0 0.0 1018.8 6.4
2017-Nov-13 04:00N 54°38' W 008°37'0 0.0 1019.3 4.5
2017-Nov-13 03:00N 54°38' W 008°37'0 0.0 1019.9 3.3
2017-Nov-13 02:00N 54°38' W 008°37'0 0.0 1020.1 2.8
2017-Nov-13 01:00N 54°38' W 008°37'0 0.0 1020.4 3.1
2017-Nov-13 00:00N 54°38' W 008°37'0 0.0 1020.8 3.2
2017-Nov-12 23:00N 54°38' W 008°37'0 0.0 1020.8 3.8
2017-Nov-12 22:00N 54°38' W 008°37'0 0.0 1020.9 4.1
2017-Nov-12 21:00N 54°38' W 008°37'0 0.0 1020.6 4.5
2017-Nov-12 20:00N 54°38' W 008°37'0 0.0 1020.4 5.2
2017-Nov-12 19:00N 54°38' W 008°37'0 0.0 1019.6 5.5
2017-Nov-12 18:00N 54°38' W 008°37'0 0.0 1019.0 6.1
2017-Nov-12 17:00N 54°38' W 008°37'0 0.0 1018.1 7.0
2017-Nov-12 16:00N 54°38' W 008°37'0 0.0 1017.5 9.3
2017-Nov-12 15:00N 54°38' W 008°37'0 0.0 1016.8 10.5
2017-Nov-12 14:00N 54°38' W 008°37'0 0.0 1016.0 11.4
2017-Nov-12 13:00N 54°38' W 008°37'0 0.0 1015.5 11.4
2017-Nov-12 12:00N 54°38' W 008°37'0 0.0 1014.8 11.4
2017-Nov-12 11:00N 54°38' W 008°37'0 0.0 1013.9 9.5
2017-Nov-12 10:00N 54°38' W 008°37'0 0.0 1012.6 6.3
2017-Nov-12 09:00N 54°38' W 008°37'0 0.0 1011.8 4.9
2017-Nov-12 08:00N 54°38' W 008°37'0 0.0 1010.8 4.3
2017-Nov-12 07:00N 54°38' W 008°37'0 0.0 1009.9 4.7
2017-Nov-12 06:00N 54°38' W 008°37'0 0.0 1009.6 5.4
2017-Nov-12 05:00N 54°38' W 008°37'0 0.0 1008.8 4.6
2017-Nov-12 04:00N 54°38' W 008°37'0 0.0 1008.5 5.1
2017-Nov-12 03:00N 54°38' W 008°37'0 0.0 1008.5 4.8
2017-Nov-12 02:00N 54°38' W 008°37'0 0.0 1007.9 4.9
2017-Nov-12 01:00N 54°38' W 008°37'0 0.0 1007.8 5.0
2017-Nov-12 00:00N 54°38' W 008°37'0 0.0 1007.7 5.2
2017-Nov-11 23:00N 54°38' W 008°37'0 0.0 1007.4 5.0
2017-Nov-11 22:00N 54°38' W 008°37'0 0.0 1006.7 5.2
2017-Nov-11 21:00N 54°38' W 008°37'0 0.0 1007.0 5.5
2017-Nov-11 20:00N 54°38' W 008°37'0 0.0 1006.7 6.2
2017-Nov-11 19:00N 54°38' W 008°37'0 0.0 1006.4 6.6
2017-Nov-11 18:00N 54°38' W 008°37'0 0.0 1005.9 7.1
2017-Nov-11 17:00N 54°38' W 008°37'0 0.0 1005.7 7.3
2017-Nov-11 16:00N 54°38' W 008°37'0 0.0 1005.7 7.8
2017-Nov-11 15:00N 54°38' W 008°37'0 0.0 1005.9 8.3
2017-Nov-11 14:00N 54°38' W 008°37'0 0.0 1006.3 8.5
2017-Nov-11 13:00N 54°38' W 008°37'0 0.0 1006.2 8.8
2017-Nov-11 12:00N 54°38' W 008°37'0 0.0 1006.4 9.2
2017-Nov-11 11:00N 54°38' W 008°37'0 0.0 1006.2 8.9
2017-Nov-11 10:00N 54°38' W 008°37'0 0.0 1006.7 7.9
2017-Nov-11 09:00N 54°38' W 008°37'0 0.0 1005.9 6.8
2017-Nov-11 08:00N 54°38' W 008°37'0 0.0 1005.5 6.4
2017-Nov-11 07:00N 54°38' W 008°37'0 0.0 1005.0 6.7
2017-Nov-11 06:00N 54°38' W 008°37'0 0.0 1004.8 6.6
2017-Nov-11 05:00N 54°38' W 008°37'0 0.0 1004.6 6.5
2017-Nov-11 04:00N 54°38' W 008°37'0 0.0 1004.2 6.4
2017-Nov-11 03:00N 54°38' W 008°37'0 0.0 1004.2 6.6
2017-Nov-11 02:00N 54°38' W 008°37'0 0.0 1003.6 6.8
2017-Nov-11 01:00N 54°38' W 008°37'0 0.0 1003.7 6.8
2017-Nov-11 00:00N 54°38' W 008°37'0 0.0 1004.2 6.9
2017-Nov-10 23:00N 54°38' W 008°37'0 0.0 1005.1 7.3
2017-Nov-10 22:00N 54°38' W 008°37'0 0.0 1005.7 7.5
2017-Nov-10 21:00N 54°38' W 008°37'0 0.0 1007.0 7.2
2017-Nov-10 20:00N 54°38' W 008°37'0 0.0 1008.4 7.2
2017-Nov-10 19:00N 54°38' W 008°37'0 0.0 1009.3 7.2
2017-Nov-10 18:00N 54°38' W 008°37'0 0.0 1010.1 7.6
2017-Nov-10 17:00N 54°38' W 008°37'0 0.0 1010.7 8.0
2017-Nov-10 16:00N 54°38' W 008°37'0 0.0 1011.3 8.8
2017-Nov-10 15:00N 54°38' W 008°37'0 0.0 1011.9 9.2
2017-Nov-10 14:00N 54°38' W 008°37'0 0.0 1012.7 9.4
2017-Nov-10 13:00N 54°38' W 008°37'0 0.0 1013.3 10.6
2017-Nov-10 12:00N 54°38' W 008°37'0 0.0 1013.6 11.5
2017-Nov-10 11:00N 54°38' W 008°37'0 0.0 1013.7 11.7
2017-Nov-10 10:00N 54°38' W 008°37'0 0.0 1013.9 10.3
2017-Nov-10 09:00N 54°38' W 008°37'0 0.0 1013.9 7.2
2017-Nov-10 08:00N 54°38' W 008°37'0 0.0 1014.0 6.6
2017-Nov-10 07:00N 54°38' W 008°37'0 0.0 1013.6 6.5
2017-Nov-10 06:00N 54°38' W 008°37'0 0.0 1013.2 6.8
2017-Nov-10 05:00N 54°38' W 008°37'0 0.0 1013.1 7.1
2017-Nov-10 04:00N 54°38' W 008°37'0 0.0 1012.4 7.1
2017-Nov-10 03:00N 54°38' W 008°37'0 0.0 1012.4 7.8
2017-Nov-10 02:00N 54°38' W 008°37'0 0.0 1011.9 8.2
2017-Nov-10 01:00N 54°38' W 008°37'0 0.0 1011.5 8.1
2017-Nov-10 00:00N 54°38' W 008°37'0 0.0 1011.0 9.4
2017-Nov-09 23:00N 54°38' W 008°37'0 0.0 1009.7 10.9
2017-Nov-09 22:00N 54°38' W 008°37'0 0.0 1009.4 11.1
2017-Nov-09 21:00N 54°38' W 008°37'0 0.0 1009.8 11.1
2017-Nov-09 20:00N 54°38' W 008°37'0 0.0 1010.5 9.7
2017-Nov-09 19:00N 54°38' W 008°37'0 0.0 1012.4 9.1
2017-Nov-09 18:00N 54°38' W 008°37'0 0.0 1012.8 10.1
2017-Nov-09 17:00N 54°38' W 008°37'0 0.0 1013.7 9.9
2017-Nov-09 16:00N 54°38' W 008°37'0 0.0 1014.6 9.7
2017-Nov-09 15:00N 54°38' W 008°37'0 0.0 1015.5 10.3
2017-Nov-09 14:00N 54°38' W 008°37'0 0.0 1015.9 11.3
2017-Nov-09 13:00N 54°38' W 008°37'0 0.0 1015.8 12.4
2017-Nov-09 12:00N 54°38' W 008°37'0 0.0 1016.4 12.4
2017-Nov-09 11:00N 54°38' W 008°37'0 0.0 1016.5 14.4
2017-Nov-09 10:00N 54°38' W 008°37'0 0.0 1016.4 9.5
2017-Nov-09 09:00N 54°38' W 008°37'0 0.0 1015.9 8.2
2017-Nov-09 08:00N 54°38' W 008°37'0 0.0 1015.7 8.2
2017-Nov-09 07:00N 54°38' W 008°37'0 0.0 1014.7 7.9
2017-Nov-09 06:00N 54°38' W 008°37'0 0.0 1014.4 7.8
2017-Nov-09 05:00N 54°38' W 008°37'0 0.0 1013.6 8.8
2017-Nov-09 04:00N 54°38' W 008°37'0 0.0 1012.7 10.0
2017-Nov-09 03:00N 54°38' W 008°37'0 0.0 1011.8 10.6
2017-Nov-09 02:00N 54°38' W 008°37'0 0.0 1011.5 11.2
2017-Nov-09 01:00N 54°38' W 008°37'0 0.0 1011.4 11.3
2017-Nov-09 00:00N 54°38' W 008°37'0 0.0 1011.5 11.3
2017-Nov-08 23:00N 54°38' W 008°37'0 0.0 1011.2 11.4
2017-Nov-08 22:00N 54°38' W 008°37'0 0.0 1011.2 11.4
2017-Nov-08 21:00N 54°38' W 008°37'0 0.0 1011.6 11.3
2017-Nov-08 20:00N 54°38' W 008°37'0 0.0 1012.0 11.1
2017-Nov-08 19:00N 54°38' W 008°37'0 0.0 1011.7 11.3
2017-Nov-08 18:00N 54°38' W 008°37'0 0.0 1011.6 11.1
2017-Nov-08 17:00N 54°38' W 008°37'0 0.0 1011.6 11.1
2017-Nov-08 16:00N 54°38' W 008°37'0 0.0 1011.2 11.0
2017-Nov-08 15:00N 54°38' W 008°37'0 0.0 1011.2 10.2
2017-Nov-08 14:00N 54°38' W 008°37'0 0.0 1011.7 9.7
2017-Nov-08 13:00N 54°38' W 008°37'0 0.0 1012.5 9.2
2017-Nov-08 12:00N 54°38' W 008°37'0 0.0 1012.8 8.4
2017-Nov-08 11:00N 54°38' W 008°37'0 0.0 1013.5 7.5
2017-Nov-08 10:00N 54°38' W 008°37'0 0.0 1013.3 8.3
2017-Nov-08 09:00N 54°38' W 008°37'0 0.0 1013.1 7.4
2017-Nov-08 08:00N 54°38' W 008°37'0 0.0 1013.5 6.8
2017-Nov-08 07:00N 54°38' W 008°37'0 0.0 1013.3 6.9
2017-Nov-08 06:00N 54°38' W 008°37'0 0.0 1013.1 7.2
2017-Nov-08 05:00N 54°38' W 008°37'0 0.0 1013.3 6.9
2017-Nov-08 04:00N 54°38' W 008°37'0 0.0 1013.0 5.6
2017-Nov-08 03:00N 54°38' W 008°37'0 0.0 1012.6 5.3
2017-Nov-08 02:00N 54°38' W 008°37'0 0.0 1012.5 4.9
2017-Nov-08 01:00N 54°38' W 008°37'0 0.0 1012.5 5.1
2017-Nov-08 00:00N 54°38' W 008°37'0 0.0 1011.8 4.3
2017-Nov-07 23:00N 54°38' W 008°37'0 0.0 1011.7 4.3
2017-Nov-07 22:00N 54°38' W 008°37'0 0.0 1011.2 4.4
2017-Nov-07 21:00N 54°38' W 008°37'0 0.0 1010.6 4.7
2017-Nov-07 20:00N 54°38' W 008°37'0 0.0 1009.9 4.6
2017-Nov-07 19:00N 54°38' W 008°37'0 0.0 1009.1 4.8
2017-Nov-07 18:00N 54°38' W 008°37'0 0.0 1008.5 6.1
2017-Nov-07 17:00N 54°38' W 008°37'0 0.0 1008.2 5.9
2017-Nov-07 16:00N 54°38' W 008°37'0 0.0 1007.3 7.1
2017-Nov-07 15:00N 54°38' W 008°37'0 0.0 1007.0 7.2
2017-Nov-07 14:00N 54°38' W 008°37'0 0.0 1006.9 10.6
2017-Nov-07 13:00N 54°38' W 008°37'0 0.0 1007.0 8.4
2017-Nov-07 12:00N 54°38' W 008°37'0 0.0 1006.7 10.9
2017-Nov-07 11:00N 54°38' W 008°37'0 0.0 1006.3 8.9
2017-Nov-07 10:00N 54°38' W 008°37'0 0.0 1006.1 6.6
2017-Nov-07 09:00N 54°38' W 008°37'0 0.0 1005.7 6.3
2017-Nov-07 08:00N 54°38' W 008°37'0 0.0 1004.8 5.4
2017-Nov-07 07:00N 54°38' W 008°37'0 0.0 1004.1 5.7
2017-Nov-07 06:00N 54°38' W 008°37'0 0.0 1003.4 5.1
2017-Nov-07 05:00N 54°38' W 008°37'0 0.0 1002.9 5.1
2017-Nov-07 04:00N 54°38' W 008°37'0 0.0 1002.2 5.4
2017-Nov-07 03:00N 54°38' W 008°37'0 0.0 1001.9 6.0
2017-Nov-07 02:00N 54°38' W 008°37'0 0.0 1001.3 6.2
2017-Nov-07 01:00N 54°38' W 008°37'0 0.0 1001.1 6.2
2017-Nov-07 00:00N 54°38' W 008°37'0 0.0 1000.4 6.4
2017-Nov-06 23:00N 54°38' W 008°37'0 0.0 999.4 7.3
2017-Nov-06 22:00N 54°38' W 008°37'0 0.0 998.4 7.8
2017-Nov-06 21:00N 54°38' W 008°37'0 0.0 997.2 8.9
2017-Nov-06 20:00N 54°38' W 008°37'   997.0 10.9
Track history (hours):
 
Tides and Currents Weather Stations Pressure Air Temp Water Temp Dewpoint Dewpoint Depression Visibility Wind Speed Wind Dir Waves Ship Positions

Drifting buoy 47557

Last reported at 2017-Nov-16 20:00 UTC. Time now 2017-Dec-15 10:23 UTC.
Position N 54°38' W 008°37'.
Warning: this ship's position is 28 days out of date.

Barometer 1019.4 mb
Water temperature 5.9 ° C

Date/timePositionNaut miles runAvg speedWind from/ knotsBaromVisibWave heightAir tempDewpointWater temp
2017-Nov-16 20:00N 54°38' W 008°37'0 0.0 1019.4 5.9
2017-Nov-16 19:00N 54°38' W 008°37'0 0.0 1018.9 5.7
2017-Nov-16 18:00N 54°38' W 008°37'0 0.0 1018.4 6.4
2017-Nov-16 17:00N 54°38' W 008°37'0 0.0 1018.1 7.0
2017-Nov-16 16:00N 54°38' W 008°37'0 0.0 1017.6 7.8
2017-Nov-16 15:00N 54°38' W 008°37'0 0.0 1017.0 8.9
2017-Nov-16 14:00N 54°38' W 008°37'0 0.0 1016.7 8.9
2017-Nov-16 13:00N 54°38' W 008°37'0 0.0 1016.1 10.8
2017-Nov-16 12:00N 54°38' W 008°37'0 0.0 1015.4 11.2
2017-Nov-16 11:00N 54°38' W 008°37'0 0.0 1014.7 12.1
2017-Nov-16 10:00N 54°38' W 008°37'0 0.0 1013.8 8.7
2017-Nov-16 09:00N 54°38' W 008°37'0 0.0 1013.0 6.1
2017-Nov-16 08:00N 54°38' W 008°37'0 0.0 1011.8 5.9
2017-Nov-16 07:00N 54°38' W 008°37'0 0.0 1010.4 5.9
2017-Nov-16 06:00N 54°38' W 008°37'0 0.0 1009.3 6.6
2017-Nov-16 05:00N 54°38' W 008°37'0 0.0 1008.2 6.6
2017-Nov-16 04:00N 54°38' W 008°37'0 0.0 1006.9 7.7
2017-Nov-16 03:00N 54°38' W 008°37'0 0.0 1006.0 8.4
2017-Nov-16 02:00N 54°38' W 008°37'0 0.0 1005.4 9.1
2017-Nov-16 01:00N 54°38' W 008°37'0 0.0 1004.5 10.8
2017-Nov-16 00:00N 54°38' W 008°37'0 0.0 1005.1 10.8
2017-Nov-15 23:00N 54°38' W 008°37'0 0.0 1005.6 10.6
2017-Nov-15 22:00N 54°38' W 008°37'0 0.0 1006.4 10.6
2017-Nov-15 21:00N 54°38' W 008°37'0 0.0 1007.0 10.5
2017-Nov-15 20:00N 54°38' W 008°37'0 0.0 1007.6 10.4
2017-Nov-15 19:00N 54°38' W 008°37'0 0.0 1008.2 10.2
2017-Nov-15 18:00N 54°38' W 008°37'0 0.0 1008.7 9.9
2017-Nov-15 17:00N 54°38' W 008°37'0 0.0 1009.0 9.5
2017-Nov-15 16:00N 54°38' W 008°37'0 0.0 1009.6 9.3
2017-Nov-15 15:00N 54°38' W 008°37'0 0.0 1010.3 9.1
2017-Nov-15 14:00N 54°38' W 008°37'0 0.0 1011.0 9.0
2017-Nov-15 13:00N 54°38' W 008°37'0 0.0 1011.7 8.9
2017-Nov-15 12:00N 54°38' W 008°37'0 0.0 1012.7 8.4
2017-Nov-15 11:00N 54°38' W 008°37'0 0.0 1013.7 8.2
2017-Nov-15 10:00N 54°38' W 008°37'0 0.0 1013.7 8.2
2017-Nov-15 09:00N 54°38' W 008°37'0 0.0 1014.0 7.2
2017-Nov-15 08:00N 54°38' W 008°37'0 0.0 1013.8 7.1
2017-Nov-15 07:00N 54°38' W 008°37'0 0.0 1013.9 7.0
2017-Nov-15 06:00N 54°38' W 008°37'0 0.0 1014.3 7.4
2017-Nov-15 05:00N 54°38' W 008°37'0 0.0 1014.5 7.9
2017-Nov-15 04:00N 54°38' W 008°37'0 0.0 1014.6 8.0
2017-Nov-15 03:00N 54°38' W 008°37'0 0.0 1014.9 8.2
2017-Nov-15 02:00N 54°38' W 008°37'0 0.0 1014.8 7.7
2017-Nov-15 01:00N 54°38' W 008°37'0 0.0 1014.7 7.0
2017-Nov-15 00:00N 54°38' W 008°37'0 0.0 1014.6 7.2
2017-Nov-14 23:00N 54°38' W 008°37'0 0.0 1014.5 7.2
2017-Nov-14 21:00N 54°38' W 008°37'0 0.0 1013.9 6.9
2017-Nov-14 20:00N 54°38' W 008°37'0 0.0 1013.7 7.3
2017-Nov-14 18:00N 54°38' W 008°37'0 0.0 1012.9 8.1
2017-Nov-14 17:00N 54°38' W 008°37'0 0.0 1012.5 8.8
2017-Nov-14 16:00N 54°38' W 008°37'0 0.0 1012.0 9.8
2017-Nov-14 15:00N 54°38' W 008°37'0 0.0 1011.7 10.5
2017-Nov-14 14:00N 54°38' W 008°37'0 0.0 1011.8 10.1
2017-Nov-14 13:00N 54°38' W 008°37'0 0.0 1011.8 10.7
2017-Nov-14 12:00N 54°38' W 008°37'0 0.0 1011.7 10.7
2017-Nov-14 11:00N 54°38' W 008°37'0 0.0 1011.9 10.0
2017-Nov-14 10:00N 54°38' W 008°37'0 0.0 1011.6 9.5
2017-Nov-14 09:00N 54°38' W 008°37'0 0.0 1011.4 8.9
2017-Nov-14 08:00N 54°38' W 008°37'0 0.0 1011.2 9.1
2017-Nov-14 07:00N 54°38' W 008°37'0 0.0 1010.9 9.2
2017-Nov-14 06:00N 54°38' W 008°37'0 0.0 1010.8 9.4
2017-Nov-14 05:00N 54°38' W 008°37'0 0.0 1010.5 9.5
2017-Nov-14 04:00N 54°38' W 008°37'0 0.0 1010.3 9.6
2017-Nov-14 03:00N 54°38' W 008°37'0 0.0 1010.5 10.5
2017-Nov-14 02:00N 54°38' W 008°37'0 0.0 1010.1 10.9
2017-Nov-14 01:00N 54°38' W 008°37'0 0.0 1010.0 10.9
2017-Nov-14 00:00N 54°38' W 008°37'0 0.0 1010.0 11.1
2017-Nov-13 23:00N 54°38' W 008°37'0 0.0 1010.0 11.2
2017-Nov-13 22:00N 54°38' W 008°37'0 0.0 1010.2 11.1
2017-Nov-13 21:00N 54°38' W 008°37'0 0.0 1010.3 10.9
2017-Nov-13 20:00N 54°38' W 008°37'0 0.0 1010.6 10.6
2017-Nov-13 19:00N 54°38' W 008°37'0 0.0 1011.1 10.3
2017-Nov-13 18:00N 54°38' W 008°37'0 0.0 1011.3 10.1
2017-Nov-13 17:00N 54°38' W 008°37'0 0.0 1011.6 9.7
2017-Nov-13 16:00N 54°38' W 008°37'0 0.0 1012.0 9.4
2017-Nov-13 14:00N 54°38' W 008°37'0 0.0 1013.5 8.5
2017-Nov-13 13:00N 54°38' W 008°37'0 0.0 1014.4 7.0
2017-Nov-13 12:00N 54°38' W 008°37'0 0.0 1015.4 6.9
2017-Nov-13 11:00N 54°38' W 008°37'0 0.0 1016.2 6.5
2017-Nov-13 10:00N 54°38' W 008°37'0 0.0 1016.9 6.3
2017-Nov-13 09:00N 54°38' W 008°37'0 0.0 1017.2 6.7
2017-Nov-13 08:00N 54°38' W 008°37'0 0.0 1017.2 6.6
2017-Nov-13 07:00N 54°38' W 008°37'0 0.0 1017.6 6.5
2017-Nov-13 06:00N 54°38' W 008°37'0 0.0 1018.1 6.5
2017-Nov-13 05:00N 54°38' W 008°37'0 0.0 1018.8 6.4
2017-Nov-13 04:00N 54°38' W 008°37'0 0.0 1019.3 4.5
2017-Nov-13 03:00N 54°38' W 008°37'0 0.0 1019.9 3.3
2017-Nov-13 02:00N 54°38' W 008°37'0 0.0 1020.1 2.8
2017-Nov-13 01:00N 54°38' W 008°37'0 0.0 1020.4 3.1
2017-Nov-13 00:00N 54°38' W 008°37'0 0.0 1020.8 3.2
2017-Nov-12 23:00N 54°38' W 008°37'0 0.0 1020.8 3.8
2017-Nov-12 22:00N 54°38' W 008°37'0 0.0 1020.9 4.1
2017-Nov-12 21:00N 54°38' W 008°37'0 0.0 1020.6 4.5
2017-Nov-12 20:00N 54°38' W 008°37'0 0.0 1020.4 5.2
2017-Nov-12 19:00N 54°38' W 008°37'0 0.0 1019.6 5.5
2017-Nov-12 18:00N 54°38' W 008°37'0 0.0 1019.0 6.1
2017-Nov-12 17:00N 54°38' W 008°37'0 0.0 1018.1 7.0
2017-Nov-12 16:00N 54°38' W 008°37'0 0.0 1017.5 9.3
2017-Nov-12 15:00N 54°38' W 008°37'0 0.0 1016.8 10.5
2017-Nov-12 14:00N 54°38' W 008°37'0 0.0 1016.0 11.4
2017-Nov-12 13:00N 54°38' W 008°37'0 0.0 1015.5 11.4
2017-Nov-12 12:00N 54°38' W 008°37'0 0.0 1014.8 11.4
2017-Nov-12 11:00N 54°38' W 008°37'0 0.0 1013.9 9.5
2017-Nov-12 10:00N 54°38' W 008°37'0 0.0 1012.6 6.3
2017-Nov-12 09:00N 54°38' W 008°37'0 0.0 1011.8 4.9
2017-Nov-12 08:00N 54°38' W 008°37'0 0.0 1010.8 4.3
2017-Nov-12 07:00N 54°38' W 008°37'0 0.0 1009.9 4.7
2017-Nov-12 06:00N 54°38' W 008°37'0 0.0 1009.6 5.4
2017-Nov-12 05:00N 54°38' W 008°37'0 0.0 1008.8 4.6
2017-Nov-12 04:00N 54°38' W 008°37'0 0.0 1008.5 5.1
2017-Nov-12 03:00N 54°38' W 008°37'0 0.0 1008.5 4.8
2017-Nov-12 02:00N 54°38' W 008°37'0 0.0 1007.9 4.9
2017-Nov-12 01:00N 54°38' W 008°37'0 0.0 1007.8 5.0
2017-Nov-12 00:00N 54°38' W 008°37'0 0.0 1007.7 5.2
2017-Nov-11 23:00N 54°38' W 008°37'0 0.0 1007.4 5.0
2017-Nov-11 22:00N 54°38' W 008°37'0 0.0 1006.7 5.2
2017-Nov-11 21:00N 54°38' W 008°37'0 0.0 1007.0 5.5
2017-Nov-11 20:00N 54°38' W 008°37'0 0.0 1006.7 6.2
2017-Nov-11 19:00N 54°38' W 008°37'0 0.0 1006.4 6.6
2017-Nov-11 18:00N 54°38' W 008°37'0 0.0 1005.9 7.1
2017-Nov-11 17:00N 54°38' W 008°37'0 0.0 1005.7 7.3
2017-Nov-11 16:00N 54°38' W 008°37'0 0.0 1005.7 7.8
2017-Nov-11 15:00N 54°38' W 008°37'0 0.0 1005.9 8.3
2017-Nov-11 14:00N 54°38' W 008°37'0 0.0 1006.3 8.5
2017-Nov-11 13:00N 54°38' W 008°37'0 0.0 1006.2 8.8
2017-Nov-11 12:00N 54°38' W 008°37'0 0.0 1006.4 9.2
2017-Nov-11 11:00N 54°38' W 008°37'0 0.0 1006.2 8.9
2017-Nov-11 10:00N 54°38' W 008°37'0 0.0 1006.7 7.9
2017-Nov-11 09:00N 54°38' W 008°37'0 0.0 1005.9 6.8
2017-Nov-11 08:00N 54°38' W 008°37'0 0.0 1005.5 6.4
2017-Nov-11 07:00N 54°38' W 008°37'0 0.0 1005.0 6.7
2017-Nov-11 06:00N 54°38' W 008°37'0 0.0 1004.8 6.6
2017-Nov-11 05:00N 54°38' W 008°37'0 0.0 1004.6 6.5
2017-Nov-11 04:00N 54°38' W 008°37'0 0.0 1004.2 6.4
2017-Nov-11 03:00N 54°38' W 008°37'0 0.0 1004.2 6.6
2017-Nov-11 02:00N 54°38' W 008°37'0 0.0 1003.6 6.8
2017-Nov-11 01:00N 54°38' W 008°37'0 0.0 1003.7 6.8
2017-Nov-11 00:00N 54°38' W 008°37'0 0.0 1004.2 6.9
2017-Nov-10 23:00N 54°38' W 008°37'0 0.0 1005.1 7.3
2017-Nov-10 22:00N 54°38' W 008°37'0 0.0 1005.7 7.5
2017-Nov-10 21:00N 54°38' W 008°37'0 0.0 1007.0 7.2
2017-Nov-10 20:00N 54°38' W 008°37'0 0.0 1008.4 7.2
2017-Nov-10 19:00N 54°38' W 008°37'0 0.0 1009.3 7.2
2017-Nov-10 18:00N 54°38' W 008°37'0 0.0 1010.1 7.6
2017-Nov-10 17:00N 54°38' W 008°37'0 0.0 1010.7 8.0
2017-Nov-10 16:00N 54°38' W 008°37'0 0.0 1011.3 8.8
2017-Nov-10 15:00N 54°38' W 008°37'0 0.0 1011.9 9.2
2017-Nov-10 14:00N 54°38' W 008°37'0 0.0 1012.7 9.4
2017-Nov-10 13:00N 54°38' W 008°37'0 0.0 1013.3 10.6
2017-Nov-10 12:00N 54°38' W 008°37'0 0.0 1013.6 11.5
2017-Nov-10 11:00N 54°38' W 008°37'0 0.0 1013.7 11.7
2017-Nov-10 10:00N 54°38' W 008°37'0 0.0 1013.9 10.3
2017-Nov-10 09:00N 54°38' W 008°37'0 0.0 1013.9 7.2
2017-Nov-10 08:00N 54°38' W 008°37'0 0.0 1014.0 6.6
2017-Nov-10 07:00N 54°38' W 008°37'0 0.0 1013.6 6.5
2017-Nov-10 06:00N 54°38' W 008°37'0 0.0 1013.2 6.8
2017-Nov-10 05:00N 54°38' W 008°37'0 0.0 1013.1 7.1
2017-Nov-10 04:00N 54°38' W 008°37'0 0.0 1012.4 7.1
2017-Nov-10 03:00N 54°38' W 008°37'0 0.0 1012.4 7.8
2017-Nov-10 02:00N 54°38' W 008°37'0 0.0 1011.9 8.2
2017-Nov-10 01:00N 54°38' W 008°37'0 0.0 1011.5 8.1
2017-Nov-10 00:00N 54°38' W 008°37'0 0.0 1011.0 9.4
2017-Nov-09 23:00N 54°38' W 008°37'0 0.0 1009.7 10.9
2017-Nov-09 22:00N 54°38' W 008°37'0 0.0 1009.4 11.1
2017-Nov-09 21:00N 54°38' W 008°37'0 0.0 1009.8 11.1
2017-Nov-09 20:00N 54°38' W 008°37'0 0.0 1010.5 9.7
2017-Nov-09 19:00N 54°38' W 008°37'0 0.0 1012.4 9.1
2017-Nov-09 18:00N 54°38' W 008°37'0 0.0 1012.8 10.1
2017-Nov-09 17:00N 54°38' W 008°37'0 0.0 1013.7 9.9
2017-Nov-09 16:00N 54°38' W 008°37'0 0.0 1014.6 9.7
2017-Nov-09 15:00N 54°38' W 008°37'0 0.0 1015.5 10.3
2017-Nov-09 14:00N 54°38' W 008°37'0 0.0 1015.9 11.3
2017-Nov-09 13:00N 54°38' W 008°37'0 0.0 1015.8 12.4
2017-Nov-09 12:00N 54°38' W 008°37'0 0.0 1016.4 12.4
2017-Nov-09 11:00N 54°38' W 008°37'0 0.0 1016.5 14.4
2017-Nov-09 10:00N 54°38' W 008°37'0 0.0 1016.4 9.5
2017-Nov-09 09:00N 54°38' W 008°37'0 0.0 1015.9 8.2
2017-Nov-09 08:00N 54°38' W 008°37'0 0.0 1015.7 8.2
2017-Nov-09 07:00N 54°38' W 008°37'0 0.0 1014.7 7.9
2017-Nov-09 06:00N 54°38' W 008°37'0 0.0 1014.4 7.8
2017-Nov-09 05:00N 54°38' W 008°37'0 0.0 1013.6 8.8
2017-Nov-09 04:00N 54°38' W 008°37'0 0.0 1012.7 10.0
2017-Nov-09 03:00N 54°38' W 008°37'0 0.0 1011.8 10.6
2017-Nov-09 02:00N 54°38' W 008°37'0 0.0 1011.5 11.2
2017-Nov-09 01:00N 54°38' W 008°37'0 0.0 1011.4 11.3
2017-Nov-09 00:00N 54°38' W 008°37'0 0.0 1011.5 11.3
2017-Nov-08 23:00N 54°38' W 008°37'0 0.0 1011.2 11.4
2017-Nov-08 22:00N 54°38' W 008°37'0 0.0 1011.2 11.4
2017-Nov-08 21:00N 54°38' W 008°37'0 0.0 1011.6 11.3
2017-Nov-08 20:00N 54°38' W 008°37'0 0.0 1012.0 11.1
2017-Nov-08 19:00N 54°38' W 008°37'0 0.0 1011.7 11.3
2017-Nov-08 18:00N 54°38' W 008°37'0 0.0 1011.6 11.1
2017-Nov-08 17:00N 54°38' W 008°37'0 0.0 1011.6 11.1
2017-Nov-08 16:00N 54°38' W 008°37'0 0.0 1011.2 11.0
2017-Nov-08 15:00N 54°38' W 008°37'0 0.0 1011.2 10.2
2017-Nov-08 14:00N 54°38' W 008°37'0 0.0 1011.7 9.7
2017-Nov-08 13:00N 54°38' W 008°37'0 0.0 1012.5 9.2
2017-Nov-08 12:00N 54°38' W 008°37'0 0.0 1012.8 8.4
2017-Nov-08 11:00N 54°38' W 008°37'0 0.0 1013.5 7.5
2017-Nov-08 10:00N 54°38' W 008°37'0 0.0 1013.3 8.3
2017-Nov-08 09:00N 54°38' W 008°37'0 0.0 1013.1 7.4
2017-Nov-08 08:00N 54°38' W 008°37'0 0.0 1013.5 6.8
2017-Nov-08 07:00N 54°38' W 008°37'0 0.0 1013.3 6.9
2017-Nov-08 06:00N 54°38' W 008°37'0 0.0 1013.1 7.2
2017-Nov-08 05:00N 54°38' W 008°37'0 0.0 1013.3 6.9
2017-Nov-08 04:00N 54°38' W 008°37'0 0.0 1013.0 5.6
2017-Nov-08 03:00N 54°38' W 008°37'0 0.0 1012.6 5.3
2017-Nov-08 02:00N 54°38' W 008°37'0 0.0 1012.5 4.9
2017-Nov-08 01:00N 54°38' W 008°37'0 0.0 1012.5 5.1
2017-Nov-08 00:00N 54°38' W 008°37'0 0.0 1011.8 4.3
2017-Nov-07 23:00N 54°38' W 008°37'0 0.0 1011.7 4.3
2017-Nov-07 22:00N 54°38' W 008°37'0 0.0 1011.2 4.4
2017-Nov-07 21:00N 54°38' W 008°37'0 0.0 1010.6 4.7
2017-Nov-07 20:00N 54°38' W 008°37'0 0.0 1009.9 4.6
2017-Nov-07 19:00N 54°38' W 008°37'0 0.0 1009.1 4.8
2017-Nov-07 18:00N 54°38' W 008°37'0 0.0 1008.5 6.1
2017-Nov-07 17:00N 54°38' W 008°37'0 0.0 1008.2 5.9
2017-Nov-07 16:00N 54°38' W 008°37'0 0.0 1007.3 7.1
2017-Nov-07 15:00N 54°38' W 008°37'0 0.0 1007.0 7.2
2017-Nov-07 14:00N 54°38' W 008°37'0 0.0 1006.9 10.6
2017-Nov-07 13:00N 54°38' W 008°37'0 0.0 1007.0 8.4
2017-Nov-07 12:00N 54°38' W 008°37'0 0.0 1006.7 10.9
2017-Nov-07 11:00N 54°38' W 008°37'0 0.0 1006.3 8.9
2017-Nov-07 10:00N 54°38' W 008°37'0 0.0 1006.1 6.6
2017-Nov-07 09:00N 54°38' W 008°37'0 0.0 1005.7 6.3
2017-Nov-07 08:00N 54°38' W 008°37'0 0.0 1004.8 5.4
2017-Nov-07 07:00N 54°38' W 008°37'0 0.0 1004.1 5.7
2017-Nov-07 06:00N 54°38' W 008°37'0 0.0 1003.4 5.1
2017-Nov-07 05:00N 54°38' W 008°37'0 0.0 1002.9 5.1
2017-Nov-07 04:00N 54°38' W 008°37'0 0.0 1002.2 5.4
2017-Nov-07 03:00N 54°38' W 008°37'0 0.0 1001.9 6.0
2017-Nov-07 02:00N 54°38' W 008°37'0 0.0 1001.3 6.2
2017-Nov-07 01:00N 54°38' W 008°37'0 0.0 1001.1 6.2
2017-Nov-07 00:00N 54°38' W 008°37'0 0.0 1000.4 6.4
2017-Nov-06 23:00N 54°38' W 008°37'0 0.0 999.4 7.3
2017-Nov-06 22:00N 54°38' W 008°37'0 0.0 998.4 7.8
2017-Nov-06 21:00N 54°38' W 008°37'0 0.0 997.2 8.9
2017-Nov-06 20:00N 54°38' W 008°37'   997.0 10.9

Dump ship's entire track history